Cole Guidry — WDJ3088 — position and weather

sailwx.info

Track history (hours):
 
Tides and Currents Weather Stations Pressure Air Temp Water Temp Dewpoint Dewpoint Depression Visibility Wind Speed Wind Dir Waves Ship Positions

Cole Guidry

Owner: Danielle Marine Towing LLC, Cut Off, LA. More information available from US FCC via Universal Licensing System and Coast Guard Vessel Documentation Center.

Last reported at 2017-Sep-21 02:47 UTC. Time now 2017-Sep-23 07:27 UTC.
Position N 29°29' W 094°51'.

Length 24 m; draft 3 m.

Type: . MMSI: 367764630.

Date/timePositionNaut miles runAvg speedWind from/ knotsBaromVisibWave heightAir tempDewpointWater temp
2017-Sep-21 02:47N 29°29' W 094°51'2 7.8
2017-Sep-21 02:30N 29°30' W 094°53'4 7.7
2017-Sep-21 02:00N 29°34' W 094°55'4 7.5
2017-Sep-21 01:30N 29°37' W 094°57'4 7.8
2017-Sep-21 01:00N 29°41' W 094°59'3 6.8
2017-Sep-21 00:30N 29°43' W 095°01'3 5.6
2017-Sep-20 23:59N 29°45' W 095°04'1 0.7
2017-Sep-20 22:52N 29°46' W 095°04'0 0.0
2017-Sep-20 22:29N 29°46' W 095°04'1 2.3
2017-Sep-20 22:00N 29°47' W 095°04'0 0.2
2017-Sep-20 21:30N 29°47' W 095°05'0 0.0
2017-Sep-20 21:00N 29°47' W 095°05'0 0.0
2017-Sep-20 20:30N 29°47' W 095°05'0 0.0
2017-Sep-20 20:00N 29°47' W 095°05'0 0.0
2017-Sep-20 19:30N 29°47' W 095°05'0 0.0
2017-Sep-20 19:00N 29°47' W 095°05'0 0.0
2017-Sep-20 18:30N 29°47' W 095°05'0 0.0
2017-Sep-20 18:00N 29°47' W 095°05'1 0.3
2017-Sep-20 15:42N 29°47' W 095°04'1 2.4
2017-Sep-20 15:29N 29°47' W 095°04'0 0.4
2017-Sep-20 15:00N 29°47' W 095°05'0 0.0
2017-Sep-20 14:00N 29°47' W 095°05'0 0.0
2017-Sep-20 13:30N 29°47' W 095°05'0 0.0
2017-Sep-20 13:00N 29°47' W 095°05'0 0.0
2017-Sep-20 12:29N 29°47' W 095°05'0 0.1
2017-Sep-20 12:00N 29°47' W 095°05'0 0.1
2017-Sep-20 11:30N 29°47' W 095°05'0 0.0
2017-Sep-20 11:00N 29°47' W 095°05'0 0.0
2017-Sep-20 10:30N 29°47' W 095°05'1 0.2
2017-Sep-20 06:33N 29°46' W 095°05'1 7.1
2017-Sep-20 06:26N 29°47' W 095°05'0 0.0
2017-Sep-20 06:00N 29°47' W 095°05'0 0.0
2017-Sep-20 05:30N 29°47' W 095°05'0 0.0
2017-Sep-20 05:00N 29°47' W 095°05'0 0.0
2017-Sep-20 04:30N 29°47' W 095°05'0 0.0
2017-Sep-20 04:00N 29°47' W 095°05'0 0.0
2017-Sep-20 03:30N 29°47' W 095°05'0 0.0
2017-Sep-20 03:00N 29°47' W 095°05'0 0.0
2017-Sep-20 02:30N 29°47' W 095°05'0 0.0
2017-Sep-20 02:00N 29°47' W 095°05'0 0.0
2017-Sep-20 01:30N 29°47' W 095°05'0 0.0
2017-Sep-20 01:00N 29°47' W 095°05'0 0.0
2017-Sep-20 00:30N 29°47' W 095°05'0 0.0
2017-Sep-20 00:00N 29°47' W 095°05'0 0.0
2017-Sep-19 23:30N 29°47' W 095°05'0 0.0
2017-Sep-19 23:00N 29°47' W 095°05'1 0.7
2017-Sep-19 22:14N 29°47' W 095°04'0 2.0
2017-Sep-19 21:58N 29°47' W 095°04'0 0.1
2017-Sep-19 21:30N 29°47' W 095°05'0 0.2
2017-Sep-19 20:11N 29°47' W 095°04'1 6.2
2017-Sep-19 20:00N 29°46' W 095°05'1 0.0
2017-Sep-18 15:08N 29°45' W 095°06'1 6.0
2017-Sep-18 14:59N 29°46' W 095°05'1 1.9
2017-Sep-18 14:26N 29°47' W 095°04'2 1.4
2017-Sep-18 12:52N 29°45' W 095°06'1 1.8
2017-Sep-18 12:05N 29°46' W 095°05'1 5.8
2017-Sep-18 11:59N 29°46' W 095°05'1 0.8
2017-Sep-18 11:11N 29°45' W 095°06'1 5.6
2017-Sep-18 10:57N 29°46' W 095°05'0 0.3
2017-Sep-18 09:32N 29°47' W 095°04'0 0.5
2017-Sep-18 09:28N 29°47' W 095°05'2 0.2
2017-Sep-17 23:20N 29°45' W 095°06'0 0.0
2017-Sep-17 16:03N 29°45' W 095°06'0 7.2
2017-Sep-17 16:00N 29°46' W 095°05'2 0.2
2017-Sep-17 09:35N 29°47' W 095°04'0 0.0
2017-Sep-17 03:19N 29°47' W 095°05'0 0.1
2017-Sep-17 01:56N 29°47' W 095°04'0 0.2
2017-Sep-17 00:20N 29°47' W 095°04'0 1.0
2017-Sep-16 23:58N 29°47' W 095°04'0 0.0
2017-Sep-16 23:28N 29°47' W 095°04'0 0.0
2017-Sep-16 22:54N 29°47' W 095°04'0 0.0
2017-Sep-16 22:29N 29°47' W 095°04'0 0.0
2017-Sep-16 21:37N 29°47' W 095°04'0 0.0
2017-Sep-16 21:29N 29°47' W 095°04'0 0.0
2017-Sep-16 20:50N 29°47' W 095°04'0 0.0
2017-Sep-16 18:07N 29°47' W 095°04'0 0.1
2017-Sep-16 17:59N 29°47' W 095°04'0 0.0
2017-Sep-16 16:28N 29°47' W 095°04'0 0.0
2017-Sep-16 15:01N 29°47' W 095°04'0 0.0
2017-Sep-16 14:50N 29°47' W 095°04'0 0.0
2017-Sep-16 14:21N 29°47' W 095°04'0 0.0
2017-Sep-16 13:59N 29°47' W 095°04'0 0.0
2017-Sep-16 09:27N 29°47' W 095°04'0 0.0
2017-Sep-16 09:00N 29°47' W 095°04'0 0.0
2017-Sep-16 08:18N 29°47' W 095°04'0 0.0
2017-Sep-16 08:00N 29°47' W 095°04'0 0.0
2017-Sep-16 07:19N 29°47' W 095°04'0 0.0
2017-Sep-16 06:59N 29°47' W 095°04'0 0.0
2017-Sep-16 06:16N 29°47' W 095°04'0 0.0
2017-Sep-16 05:59N 29°47' W 095°04'0 0.0
2017-Sep-16 05:27N 29°47' W 095°04'0 0.0
2017-Sep-16 05:00N 29°47' W 095°04'0 0.0
2017-Sep-16 04:16N 29°47' W 095°04'0 0.0
2017-Sep-16 03:44N 29°47' W 095°04'0 0.0
2017-Sep-16 03:19N 29°47' W 095°04'0 0.0
2017-Sep-16 02:43N 29°47' W 095°04'0 0.0
2017-Sep-16 02:27N 29°47' W 095°04'1 1.3
2017-Sep-16 01:39N 29°46' W 095°05'1 0.8
2017-Sep-16 00:20N 29°47' W 095°04'0 1.3
2017-Sep-15 23:59N 29°47' W 095°04'0 0.2
2017-Sep-15 23:16N 29°47' W 095°04'1 5.5
2017-Sep-15 23:00N 29°46' W 095°05'0 0.1
2017-Sep-15 22:19N 29°46' W 095°05'1 2.1
2017-Sep-15 21:46N 29°47' W 095°04'2 5.6
2017-Sep-15 21:30N 29°46' W 095°06'1 0.2
2017-Sep-15 14:17N 29°47' W 095°04'0 0.6
2017-Sep-15 13:57N 29°47' W 095°04'0 0.5
2017-Sep-15 13:17N 29°47' W 095°04'2 5.3
2017-Sep-15 13:00N 29°46' W 095°05'1 0.0
2017-Sep-14 16:46N 29°45' W 095°06'2 5.6
2017-Sep-14 16:27N 29°47' W 095°04'1 2.7
2017-Sep-14 16:00N 29°46' W 095°05'1 0.1
2017-Sep-14 10:59N 29°45' W 095°06'2 2.6
2017-Sep-14 10:19N 29°47' W 095°04'0 0.1
2017-Sep-14 09:14N 29°47' W 095°04'0 0.0
2017-Sep-14 08:58N 29°47' W 095°04'0 0.0
2017-Sep-14 08:07N 29°47' W 095°04'0 0.0
2017-Sep-14 07:45N 29°47' W 095°04'0 0.0
2017-Sep-14 07:27N 29°47' W 095°04'0 0.0
2017-Sep-14 06:57N 29°47' W 095°04'0 0.0
2017-Sep-14 06:27N 29°47' W 095°04'0 0.0
2017-Sep-14 05:57N 29°47' W 095°04'0 0.0
2017-Sep-14 05:13N 29°47' W 095°04'0 0.0
2017-Sep-14 05:00N 29°47' W 095°04'0 0.0
2017-Sep-14 04:16N 29°47' W 095°04'0 0.0
2017-Sep-14 03:55N 29°47' W 095°04'0 0.0
2017-Sep-14 03:23N 29°47' W 095°04'0 0.0
2017-Sep-14 02:57N 29°47' W 095°04'0 0.0
2017-Sep-14 02:12N 29°47' W 095°04'0 0.0
2017-Sep-14 01:47N 29°47' W 095°04'0 0.0
2017-Sep-14 01:27N 29°47' W 095°04'0 0.0
2017-Sep-14 00:36N 29°47' W 095°04'0 0.0
2017-Sep-13 23:48N 29°47' W 095°04'0 0.0
2017-Sep-13 23:26N 29°47' W 095°04'1 0.3
2017-Sep-13 19:09N 29°46' W 095°05'0 0.5
2017-Sep-13 18:48N 29°46' W 095°05'1 3.5
2017-Sep-13 18:30N 29°47' W 095°04'1 0.3
2017-Sep-13 16:16N 29°46' W 095°05'1 0.1
2017-Sep-13 10:29N 29°47' W 095°04'1 0.4
2017-Sep-13 07:46N 29°46' W 095°05'1 3.8
2017-Sep-13 07:30N 29°47' W 095°05'0 0.0
2017-Sep-13 07:00N 29°47' W 095°05'0 0.0
2017-Sep-13 06:08N 29°47' W 095°05'0 0.0
2017-Sep-13 05:59N 29°47' W 095°05'0 0.0
2017-Sep-13 05:29N 29°47' W 095°05'0 0.0
2017-Sep-13 05:00N 29°47' W 095°05'0 0.0
2017-Sep-13 04:29N 29°47' W 095°05'0 0.0
2017-Sep-13 03:59N 29°47' W 095°05'0 0.0
2017-Sep-13 03:29N 29°47' W 095°05'0 0.0
2017-Sep-13 03:00N 29°47' W 095°05'0 0.0
2017-Sep-13 02:30N 29°47' W 095°05'0 0.0
2017-Sep-13 02:00N 29°47' W 095°05'0 0.0
2017-Sep-13 01:30N 29°47' W 095°05'0 0.0
2017-Sep-13 00:55N 29°47' W 095°05'0 0.0
2017-Sep-13 00:27N 29°47' W 095°05'0 0.0
2017-Sep-12 23:59N 29°47' W 095°05'0 0.0
2017-Sep-12 23:29N 29°47' W 095°05'0 0.0
2017-Sep-12 22:58N 29°47' W 095°05'0 0.0
2017-Sep-12 22:30N 29°47' W 095°05'0 0.0
2017-Sep-12 21:56N 29°47' W 095°05'0 0.0
2017-Sep-12 21:27N 29°47' W 095°05'0 0.0
2017-Sep-12 20:56N 29°47' W 095°05'0 0.0
2017-Sep-12 20:30N 29°47' W 095°05'0 0.0
2017-Sep-12 19:47N 29°47' W 095°05'0 0.0
2017-Sep-12 19:21N 29°47' W 095°05'0 0.0
2017-Sep-12 18:51N 29°47' W 095°05'0 0.0
2017-Sep-12 18:26N 29°47' W 095°05'0 0.0
2017-Sep-12 17:58N 29°47' W 095°05'0 0.0
2017-Sep-12 17:30N 29°47' W 095°05'0 0.0
2017-Sep-12 16:55N 29°47' W 095°05'0 0.0
2017-Sep-12 16:30N 29°47' W 095°05'0 0.0
2017-Sep-12 16:00N 29°47' W 095°05'0 0.0
2017-Sep-12 15:30N 29°47' W 095°05'0 0.0
2017-Sep-12 15:00N 29°47' W 095°05'0 0.0
2017-Sep-12 14:28N 29°47' W 095°05'0 0.0
2017-Sep-12 13:58N 29°47' W 095°05'0 0.0
2017-Sep-12 13:30N 29°47' W 095°05'0 0.0
2017-Sep-12 13:00N 29°47' W 095°05'0 0.0
2017-Sep-12 12:30N 29°47' W 095°05'0 0.0
2017-Sep-12 12:00N 29°47' W 095°05'0 0.0
2017-Sep-12 11:30N 29°47' W 095°05'0 0.0
2017-Sep-12 11:00N 29°47' W 095°05'0 0.0
2017-Sep-12 10:30N 29°47' W 095°05'0 0.0
2017-Sep-12 10:00N 29°47' W 095°05'0 0.0
2017-Sep-12 09:30N 29°47' W 095°05'0 0.0
2017-Sep-12 09:00N 29°47' W 095°05'0 0.0
2017-Sep-12 08:30N 29°47' W 095°05'0 0.0
2017-Sep-12 08:00N 29°47' W 095°05'0 0.0
2017-Sep-12 07:30N 29°47' W 095°05'0 0.0
2017-Sep-12 07:00N 29°47' W 095°05'0 0.0
2017-Sep-12 06:30N 29°47' W 095°05'0 0.0
2017-Sep-12 05:59N 29°47' W 095°05'0 0.0
2017-Sep-12 05:30N 29°47' W 095°05'0 0.0
2017-Sep-12 05:00N 29°47' W 095°05'0 0.0
2017-Sep-12 04:30N 29°47' W 095°05'0 0.0
2017-Sep-12 04:00N 29°47' W 095°05'0 0.0
2017-Sep-12 03:30N 29°47' W 095°05'0 0.0
2017-Sep-12 03:00N 29°47' W 095°05'0 0.0
2017-Sep-12 02:30N 29°47' W 095°05'0 0.0
2017-Sep-12 02:00N 29°47' W 095°05'0 0.1
2017-Sep-11 23:26N 29°47' W 095°04'0 0.0
2017-Sep-11 22:58N 29°47' W 095°04'0 0.0
2017-Sep-11 22:08N 29°47' W 095°04'0 0.0
2017-Sep-11 22:00N 29°47' W 095°04'0 0.0
2017-Sep-11 21:12N 29°47' W 095°04'0 0.5
2017-Sep-11 20:53N 29°47' W 095°04'0 0.0
2017-Sep-11 20:27N 29°47' W 095°04'0 0.0
2017-Sep-11 19:57N 29°47' W 095°04'0 0.1
2017-Sep-11 19:25N 29°47' W 095°05'0 0.5
2017-Sep-11 18:55N 29°47' W 095°04'0 0.6
2017-Sep-11 18:30N 29°47' W 095°05'1 1.4
2017-Sep-11 17:49N 29°46' W 095°05'1 0.3
2017-Sep-11 15:18N 29°46' W 095°06'1 3.0
2017-Sep-11 14:50N 29°47' W 095°05'0 0.0
2017-Sep-11 14:28N 29°47' W 095°05'0 0.0
2017-Sep-11 14:00N 29°47' W 095°05'0 0.0
2017-Sep-11 13:30N 29°47' W 095°05'0 0.0
2017-Sep-11 12:56N 29°47' W 095°05'0 0.0
2017-Sep-11 12:30N 29°47' W 095°05'0 0.0
2017-Sep-11 12:00N 29°47' W 095°05'0 0.0
2017-Sep-11 11:30N 29°47' W 095°05'0 0.0
2017-Sep-11 11:00N 29°47' W 095°05'0 0.0
2017-Sep-11 10:30N 29°47' W 095°05'0 0.0
2017-Sep-11 10:00N 29°47' W 095°05'0 0.0
2017-Sep-11 09:30N 29°47' W 095°05'0 0.0
2017-Sep-11 09:00N 29°47' W 095°05'0 0.0
2017-Sep-11 08:30N 29°47' W 095°05'0 0.0
2017-Sep-11 08:00N 29°47' W 095°05'0 0.0
2017-Sep-11 07:29N 29°47' W 095°05'0 0.0
2017-Sep-11 06:57N 29°47' W 095°05'0 0.0
2017-Sep-11 06:29N 29°47' W 095°05'0 0.0
2017-Sep-11 05:59N 29°47' W 095°05'0 0.0
2017-Sep-11 05:30N 29°47' W 095°05'0 0.0
2017-Sep-11 05:00N 29°47' W 095°05'0 0.0
2017-Sep-11 04:30N 29°47' W 095°05'0 0.0
2017-Sep-11 04:00N 29°47' W 095°05'0 0.0
2017-Sep-11 03:30N 29°47' W 095°05'0 0.0
2017-Sep-11 03:00N 29°47' W 095°05'  
Track history (hours):
 
Tides and Currents Weather Stations Pressure Air Temp Water Temp Dewpoint Dewpoint Depression Visibility Wind Speed Wind Dir Waves Ship Positions

Cole Guidry

Owner: Danielle Marine Towing LLC, Cut Off, LA. More information available from US FCC via Universal Licensing System and Coast Guard Vessel Documentation Center.

Last reported at 2017-Sep-21 02:47 UTC. Time now 2017-Sep-23 07:27 UTC.
Position N 29°29' W 094°51'.

Length 24 m; draft 3 m.

Type: . MMSI: 367764630.

Date/timePositionNaut miles runAvg speedWind from/ knotsBaromVisibWave heightAir tempDewpointWater temp
2017-Sep-21 02:47N 29°29' W 094°51'2 7.8
2017-Sep-21 02:30N 29°30' W 094°53'4 7.7
2017-Sep-21 02:00N 29°34' W 094°55'4 7.5
2017-Sep-21 01:30N 29°37' W 094°57'4 7.8
2017-Sep-21 01:00N 29°41' W 094°59'3 6.8
2017-Sep-21 00:30N 29°43' W 095°01'3 5.6
2017-Sep-20 23:59N 29°45' W 095°04'1 0.7
2017-Sep-20 22:52N 29°46' W 095°04'0 0.0
2017-Sep-20 22:29N 29°46' W 095°04'1 2.3
2017-Sep-20 22:00N 29°47' W 095°04'0 0.2
2017-Sep-20 21:30N 29°47' W 095°05'0 0.0
2017-Sep-20 21:00N 29°47' W 095°05'0 0.0
2017-Sep-20 20:30N 29°47' W 095°05'0 0.0
2017-Sep-20 20:00N 29°47' W 095°05'0 0.0
2017-Sep-20 19:30N 29°47' W 095°05'0 0.0
2017-Sep-20 19:00N 29°47' W 095°05'0 0.0
2017-Sep-20 18:30N 29°47' W 095°05'0 0.0
2017-Sep-20 18:00N 29°47' W 095°05'1 0.3
2017-Sep-20 15:42N 29°47' W 095°04'1 2.4
2017-Sep-20 15:29N 29°47' W 095°04'0 0.4
2017-Sep-20 15:00N 29°47' W 095°05'0 0.0
2017-Sep-20 14:00N 29°47' W 095°05'0 0.0
2017-Sep-20 13:30N 29°47' W 095°05'0 0.0
2017-Sep-20 13:00N 29°47' W 095°05'0 0.0
2017-Sep-20 12:29N 29°47' W 095°05'0 0.1
2017-Sep-20 12:00N 29°47' W 095°05'0 0.1
2017-Sep-20 11:30N 29°47' W 095°05'0 0.0
2017-Sep-20 11:00N 29°47' W 095°05'0 0.0
2017-Sep-20 10:30N 29°47' W 095°05'1 0.2
2017-Sep-20 06:33N 29°46' W 095°05'1 7.1
2017-Sep-20 06:26N 29°47' W 095°05'0 0.0
2017-Sep-20 06:00N 29°47' W 095°05'0 0.0
2017-Sep-20 05:30N 29°47' W 095°05'0 0.0
2017-Sep-20 05:00N 29°47' W 095°05'0 0.0
2017-Sep-20 04:30N 29°47' W 095°05'0 0.0
2017-Sep-20 04:00N 29°47' W 095°05'0 0.0
2017-Sep-20 03:30N 29°47' W 095°05'0 0.0
2017-Sep-20 03:00N 29°47' W 095°05'0 0.0
2017-Sep-20 02:30N 29°47' W 095°05'0 0.0
2017-Sep-20 02:00N 29°47' W 095°05'0 0.0
2017-Sep-20 01:30N 29°47' W 095°05'0 0.0
2017-Sep-20 01:00N 29°47' W 095°05'0 0.0
2017-Sep-20 00:30N 29°47' W 095°05'0 0.0
2017-Sep-20 00:00N 29°47' W 095°05'0 0.0
2017-Sep-19 23:30N 29°47' W 095°05'0 0.0
2017-Sep-19 23:00N 29°47' W 095°05'1 0.7
2017-Sep-19 22:14N 29°47' W 095°04'0 2.0
2017-Sep-19 21:58N 29°47' W 095°04'0 0.1
2017-Sep-19 21:30N 29°47' W 095°05'0 0.2
2017-Sep-19 20:11N 29°47' W 095°04'1 6.2
2017-Sep-19 20:00N 29°46' W 095°05'1 0.0
2017-Sep-18 15:08N 29°45' W 095°06'1 6.0
2017-Sep-18 14:59N 29°46' W 095°05'1 1.9
2017-Sep-18 14:26N 29°47' W 095°04'2 1.4
2017-Sep-18 12:52N 29°45' W 095°06'1 1.8
2017-Sep-18 12:05N 29°46' W 095°05'1 5.8
2017-Sep-18 11:59N 29°46' W 095°05'1 0.8
2017-Sep-18 11:11N 29°45' W 095°06'1 5.6
2017-Sep-18 10:57N 29°46' W 095°05'0 0.3
2017-Sep-18 09:32N 29°47' W 095°04'0 0.5
2017-Sep-18 09:28N 29°47' W 095°05'2 0.2
2017-Sep-17 23:20N 29°45' W 095°06'0 0.0
2017-Sep-17 16:03N 29°45' W 095°06'0 7.2
2017-Sep-17 16:00N 29°46' W 095°05'2 0.2
2017-Sep-17 09:35N 29°47' W 095°04'0 0.0
2017-Sep-17 03:19N 29°47' W 095°05'0 0.1
2017-Sep-17 01:56N 29°47' W 095°04'0 0.2
2017-Sep-17 00:20N 29°47' W 095°04'0 1.0
2017-Sep-16 23:58N 29°47' W 095°04'0 0.0
2017-Sep-16 23:28N 29°47' W 095°04'0 0.0
2017-Sep-16 22:54N 29°47' W 095°04'0 0.0
2017-Sep-16 22:29N 29°47' W 095°04'0 0.0
2017-Sep-16 21:37N 29°47' W 095°04'0 0.0
2017-Sep-16 21:29N 29°47' W 095°04'0 0.0
2017-Sep-16 20:50N 29°47' W 095°04'0 0.0
2017-Sep-16 18:07N 29°47' W 095°04'0 0.1
2017-Sep-16 17:59N 29°47' W 095°04'0 0.0
2017-Sep-16 16:28N 29°47' W 095°04'0 0.0
2017-Sep-16 15:01N 29°47' W 095°04'0 0.0
2017-Sep-16 14:50N 29°47' W 095°04'0 0.0
2017-Sep-16 14:21N 29°47' W 095°04'0 0.0
2017-Sep-16 13:59N 29°47' W 095°04'0 0.0
2017-Sep-16 09:27N 29°47' W 095°04'0 0.0
2017-Sep-16 09:00N 29°47' W 095°04'0 0.0
2017-Sep-16 08:18N 29°47' W 095°04'0 0.0
2017-Sep-16 08:00N 29°47' W 095°04'0 0.0
2017-Sep-16 07:19N 29°47' W 095°04'0 0.0
2017-Sep-16 06:59N 29°47' W 095°04'0 0.0
2017-Sep-16 06:16N 29°47' W 095°04'0 0.0
2017-Sep-16 05:59N 29°47' W 095°04'0 0.0
2017-Sep-16 05:27N 29°47' W 095°04'0 0.0
2017-Sep-16 05:00N 29°47' W 095°04'0 0.0
2017-Sep-16 04:16N 29°47' W 095°04'0 0.0
2017-Sep-16 03:44N 29°47' W 095°04'0 0.0
2017-Sep-16 03:19N 29°47' W 095°04'0 0.0
2017-Sep-16 02:43N 29°47' W 095°04'0 0.0
2017-Sep-16 02:27N 29°47' W 095°04'1 1.3
2017-Sep-16 01:39N 29°46' W 095°05'1 0.8
2017-Sep-16 00:20N 29°47' W 095°04'0 1.3
2017-Sep-15 23:59N 29°47' W 095°04'0 0.2
2017-Sep-15 23:16N 29°47' W 095°04'1 5.5
2017-Sep-15 23:00N 29°46' W 095°05'0 0.1
2017-Sep-15 22:19N 29°46' W 095°05'1 2.1
2017-Sep-15 21:46N 29°47' W 095°04'2 5.6
2017-Sep-15 21:30N 29°46' W 095°06'1 0.2
2017-Sep-15 14:17N 29°47' W 095°04'0 0.6
2017-Sep-15 13:57N 29°47' W 095°04'0 0.5
2017-Sep-15 13:17N 29°47' W 095°04'2 5.3
2017-Sep-15 13:00N 29°46' W 095°05'1 0.0
2017-Sep-14 16:46N 29°45' W 095°06'2 5.6
2017-Sep-14 16:27N 29°47' W 095°04'1 2.7
2017-Sep-14 16:00N 29°46' W 095°05'1 0.1
2017-Sep-14 10:59N 29°45' W 095°06'2 2.6
2017-Sep-14 10:19N 29°47' W 095°04'0 0.1
2017-Sep-14 09:14N 29°47' W 095°04'0 0.0
2017-Sep-14 08:58N 29°47' W 095°04'0 0.0
2017-Sep-14 08:07N 29°47' W 095°04'0 0.0
2017-Sep-14 07:45N 29°47' W 095°04'0 0.0
2017-Sep-14 07:27N 29°47' W 095°04'0 0.0
2017-Sep-14 06:57N 29°47' W 095°04'0 0.0
2017-Sep-14 06:27N 29°47' W 095°04'0 0.0
2017-Sep-14 05:57N 29°47' W 095°04'0 0.0
2017-Sep-14 05:13N 29°47' W 095°04'0 0.0
2017-Sep-14 05:00N 29°47' W 095°04'0 0.0
2017-Sep-14 04:16N 29°47' W 095°04'0 0.0
2017-Sep-14 03:55N 29°47' W 095°04'0 0.0
2017-Sep-14 03:23N 29°47' W 095°04'0 0.0
2017-Sep-14 02:57N 29°47' W 095°04'0 0.0
2017-Sep-14 02:12N 29°47' W 095°04'0 0.0
2017-Sep-14 01:47N 29°47' W 095°04'0 0.0
2017-Sep-14 01:27N 29°47' W 095°04'0 0.0
2017-Sep-14 00:36N 29°47' W 095°04'0 0.0
2017-Sep-13 23:48N 29°47' W 095°04'0 0.0
2017-Sep-13 23:26N 29°47' W 095°04'1 0.3
2017-Sep-13 19:09N 29°46' W 095°05'0 0.5
2017-Sep-13 18:48N 29°46' W 095°05'1 3.5
2017-Sep-13 18:30N 29°47' W 095°04'1 0.3
2017-Sep-13 16:16N 29°46' W 095°05'1 0.1
2017-Sep-13 10:29N 29°47' W 095°04'1 0.4
2017-Sep-13 07:46N 29°46' W 095°05'1 3.8
2017-Sep-13 07:30N 29°47' W 095°05'0 0.0
2017-Sep-13 07:00N 29°47' W 095°05'0 0.0
2017-Sep-13 06:08N 29°47' W 095°05'0 0.0
2017-Sep-13 05:59N 29°47' W 095°05'0 0.0
2017-Sep-13 05:29N 29°47' W 095°05'0 0.0
2017-Sep-13 05:00N 29°47' W 095°05'0 0.0
2017-Sep-13 04:29N 29°47' W 095°05'0 0.0
2017-Sep-13 03:59N 29°47' W 095°05'0 0.0
2017-Sep-13 03:29N 29°47' W 095°05'0 0.0
2017-Sep-13 03:00N 29°47' W 095°05'0 0.0
2017-Sep-13 02:30N 29°47' W 095°05'0 0.0
2017-Sep-13 02:00N 29°47' W 095°05'0 0.0
2017-Sep-13 01:30N 29°47' W 095°05'0 0.0
2017-Sep-13 00:55N 29°47' W 095°05'0 0.0
2017-Sep-13 00:27N 29°47' W 095°05'0 0.0
2017-Sep-12 23:59N 29°47' W 095°05'0 0.0
2017-Sep-12 23:29N 29°47' W 095°05'0 0.0
2017-Sep-12 22:58N 29°47' W 095°05'0 0.0
2017-Sep-12 22:30N 29°47' W 095°05'0 0.0
2017-Sep-12 21:56N 29°47' W 095°05'0 0.0
2017-Sep-12 21:27N 29°47' W 095°05'0 0.0
2017-Sep-12 20:56N 29°47' W 095°05'0 0.0
2017-Sep-12 20:30N 29°47' W 095°05'0 0.0
2017-Sep-12 19:47N 29°47' W 095°05'0 0.0
2017-Sep-12 19:21N 29°47' W 095°05'0 0.0
2017-Sep-12 18:51N 29°47' W 095°05'0 0.0
2017-Sep-12 18:26N 29°47' W 095°05'0 0.0
2017-Sep-12 17:58N 29°47' W 095°05'0 0.0
2017-Sep-12 17:30N 29°47' W 095°05'0 0.0
2017-Sep-12 16:55N 29°47' W 095°05'0 0.0
2017-Sep-12 16:30N 29°47' W 095°05'0 0.0
2017-Sep-12 16:00N 29°47' W 095°05'0 0.0
2017-Sep-12 15:30N 29°47' W 095°05'0 0.0
2017-Sep-12 15:00N 29°47' W 095°05'0 0.0
2017-Sep-12 14:28N 29°47' W 095°05'0 0.0
2017-Sep-12 13:58N 29°47' W 095°05'0 0.0
2017-Sep-12 13:30N 29°47' W 095°05'0 0.0
2017-Sep-12 13:00N 29°47' W 095°05'0 0.0
2017-Sep-12 12:30N 29°47' W 095°05'0 0.0
2017-Sep-12 12:00N 29°47' W 095°05'0 0.0
2017-Sep-12 11:30N 29°47' W 095°05'0 0.0
2017-Sep-12 11:00N 29°47' W 095°05'0 0.0
2017-Sep-12 10:30N 29°47' W 095°05'0 0.0
2017-Sep-12 10:00N 29°47' W 095°05'0 0.0
2017-Sep-12 09:30N 29°47' W 095°05'0 0.0
2017-Sep-12 09:00N 29°47' W 095°05'0 0.0
2017-Sep-12 08:30N 29°47' W 095°05'0 0.0
2017-Sep-12 08:00N 29°47' W 095°05'0 0.0
2017-Sep-12 07:30N 29°47' W 095°05'0 0.0
2017-Sep-12 07:00N 29°47' W 095°05'0 0.0
2017-Sep-12 06:30N 29°47' W 095°05'0 0.0
2017-Sep-12 05:59N 29°47' W 095°05'0 0.0
2017-Sep-12 05:30N 29°47' W 095°05'0 0.0
2017-Sep-12 05:00N 29°47' W 095°05'0 0.0
2017-Sep-12 04:30N 29°47' W 095°05'0 0.0
2017-Sep-12 04:00N 29°47' W 095°05'0 0.0
2017-Sep-12 03:30N 29°47' W 095°05'0 0.0
2017-Sep-12 03:00N 29°47' W 095°05'0 0.0
2017-Sep-12 02:30N 29°47' W 095°05'0 0.0
2017-Sep-12 02:00N 29°47' W 095°05'0 0.1
2017-Sep-11 23:26N 29°47' W 095°04'0 0.0
2017-Sep-11 22:58N 29°47' W 095°04'0 0.0
2017-Sep-11 22:08N 29°47' W 095°04'0 0.0
2017-Sep-11 22:00N 29°47' W 095°04'0 0.0
2017-Sep-11 21:12N 29°47' W 095°04'0 0.5
2017-Sep-11 20:53N 29°47' W 095°04'0 0.0
2017-Sep-11 20:27N 29°47' W 095°04'0 0.0
2017-Sep-11 19:57N 29°47' W 095°04'0 0.1
2017-Sep-11 19:25N 29°47' W 095°05'0 0.5
2017-Sep-11 18:55N 29°47' W 095°04'0 0.6
2017-Sep-11 18:30N 29°47' W 095°05'1 1.4
2017-Sep-11 17:49N 29°46' W 095°05'1 0.3
2017-Sep-11 15:18N 29°46' W 095°06'1 3.0
2017-Sep-11 14:50N 29°47' W 095°05'0 0.0
2017-Sep-11 14:28N 29°47' W 095°05'0 0.0
2017-Sep-11 14:00N 29°47' W 095°05'0 0.0
2017-Sep-11 13:30N 29°47' W 095°05'0 0.0
2017-Sep-11 12:56N 29°47' W 095°05'0 0.0
2017-Sep-11 12:30N 29°47' W 095°05'0 0.0
2017-Sep-11 12:00N 29°47' W 095°05'0 0.0
2017-Sep-11 11:30N 29°47' W 095°05'0 0.0
2017-Sep-11 11:00N 29°47' W 095°05'0 0.0
2017-Sep-11 10:30N 29°47' W 095°05'0 0.0
2017-Sep-11 10:00N 29°47' W 095°05'0 0.0
2017-Sep-11 09:30N 29°47' W 095°05'0 0.0
2017-Sep-11 09:00N 29°47' W 095°05'0 0.0
2017-Sep-11 08:30N 29°47' W 095°05'0 0.0
2017-Sep-11 08:00N 29°47' W 095°05'0 0.0
2017-Sep-11 07:29N 29°47' W 095°05'0 0.0
2017-Sep-11 06:57N 29°47' W 095°05'0 0.0
2017-Sep-11 06:29N 29°47' W 095°05'0 0.0
2017-Sep-11 05:59N 29°47' W 095°05'0 0.0
2017-Sep-11 05:30N 29°47' W 095°05'0 0.0
2017-Sep-11 05:00N 29°47' W 095°05'0 0.0
2017-Sep-11 04:30N 29°47' W 095°05'0 0.0
2017-Sep-11 04:00N 29°47' W 095°05'0 0.0
2017-Sep-11 03:30N 29°47' W 095°05'0 0.0
2017-Sep-11 03:00N 29°47' W 095°05'  

Dump ship's entire track history